Time;durP1;ratioP1;P1;durP2;ratioP2;P2;SDS_P1;SDS_P2;PMS_P1;PMS_P2;Temp;Humidity;BMP_temperature;BMP_pressure;BME280_temperature;BME280_humidity;BME280_pressure;Samples;Min_cycle;Max_cycle;Signal;HPM_P1;HPM_P2
2022/08/25 00:01:17;;;;;;;6.40;3.17;;;21.70;78.30;;;;;;5052914;28;20547;-80
2022/08/25 00:03:44;;;;;;;7.57;2.90;;;21.70;78.20;;;;;;5063491;28;20035;-82
2022/08/25 00:06:10;;;;;;;4.45;3.10;;;21.70;78.50;;;;;;5042447;28;20013;-82
2022/08/25 00:08:37;;;;;;;6.72;3.55;;;21.60;78.70;;;;;;5042225;28;20044;-82
2022/08/25 00:11:10;;;;;;;5.50;3.60;;;21.60;78.70;;;;;;5062713;28;20029;-81
2022/08/25 00:13:38;;;;;;;6.50;3.72;;;21.50;79.10;;;;;;5057311;28;20089;-82
2022/08/25 00:16:04;;;;;;;5.75;3.40;;;;;;;;;;5034637;28;20029;-81
2022/08/25 00:18:30;;;;;;;4.18;3.20;;;;;;;;;;5033579;28;20033;-83
2022/08/25 00:20:56;;;;;;;4.30;2.85;;;;;;;;;;5063329;28;20021;-83
2022/08/25 00:23:23;;;;;;;6.35;3.17;;;;;;;;;;5084250;22;20068;-82
2022/08/25 00:25:49;;;;;;;5.07;2.90;;;;;;;;;;5073695;28;20051;-83
2022/08/25 00:28:16;;;;;;;8.35;3.10;;;;;;;;;;5076333;28;20036;-82
2022/08/25 00:30:42;;;;;;;5.85;3.10;;;;;;;;;;5064483;28;20029;-85
2022/08/25 00:33:08;;;;;;;4.35;3.05;;;;;;;;;;5069128;28;20029;-83
2022/08/25 00:35:34;;;;;;;8.43;3.35;;;;;;;;;;5057086;28;20399;-82
2022/08/25 00:38:00;;;;;;;7.80;3.38;;;;;;;;;;5060892;28;20060;-83
2022/08/25 00:40:27;;;;;;;4.85;3.13;;;21.30;81.10;;;;;;5051221;28;20028;-82
2022/08/25 00:42:54;;;;;;;7.60;3.60;;;21.20;81.10;;;;;;5061189;28;20486;-84
2022/08/25 00:45:21;;;;;;;5.03;3.05;;;;;;;;;;5060946;28;20028;-82
2022/08/25 00:47:47;;;;;;;6.60;3.40;;;;;;;;;;5061405;28;20020;-83
2022/08/25 00:50:13;;;;;;;5.82;3.30;;;21.20;81.10;;;;;;5057933;28;20104;-83
2022/08/25 00:52:43;;;;;;;7.13;2.80;;;21.20;81.20;;;;;;5036765;28;20060;-85
2022/08/25 00:55:17;;;;;;;6.15;2.97;;;21.10;81.20;;;;;;5063420;28;20032;-83
2022/08/25 00:57:46;;;;;;;6.72;2.83;;;21.10;81.30;;;;;;5063732;28;20390;-83
2022/08/25 01:00:20;;;;;;;5.32;2.97;;;21.10;81.70;;;;;;5048564;28;20029;-81
2022/08/25 01:02:46;;;;;;;6.03;2.85;;;21.10;81.40;;;;;;5063056;28;20032;-82
2022/08/25 01:05:12;;;;;;;6.75;2.72;;;21.00;81.40;;;;;;5041184;28;20029;-82
2022/08/25 01:07:39;;;;;;;4.55;3.08;;;21.00;81.50;;;;;;5060927;28;20104;-82
2022/08/25 01:10:06;;;;;;;4.82;3.08;;;20.90;81.90;;;;;;5052147;28;20119;-82
2022/08/25 01:12:33;;;;;;;6.82;3.10;;;21.00;81.80;;;;;;5068518;28;20044;-83
2022/08/25 01:15:00;;;;;;;5.85;3.13;;;20.90;81.80;;;;;;5066975;28;20024;-83
2022/08/25 01:17:44;;;;;;;4.85;2.95;;;20.90;82.30;;;;;;5062385;28;20025;-82
2022/08/25 01:20:10;;;;;;;5.78;2.60;;;20.90;82.50;;;;;;5061879;28;20021;-85
2022/08/25 01:22:36;;;;;;;5.75;2.80;;;20.90;82.10;;;;;;5049667;28;20047;-84
2022/08/25 01:25:11;;;;;;;4.22;2.63;;;20.80;82.00;;;;;;5056983;28;20028;-84
2022/08/25 01:27:36;;;;;;;4.35;2.97;;;;;;;;;;5062662;28;20033;-83
2022/08/25 01:30:04;;;;;;;5.47;3.00;;;20.80;82.20;;;;;;5055185;28;20171;-82
2022/08/25 01:32:33;;;;;;;6.57;2.80;;;20.70;82.50;;;;;;5033846;28;20036;-83
2022/08/25 01:34:59;;;;;;;4.85;3.00;;;;;;;;;;5046187;28;20064;-82
2022/08/25 01:37:25;;;;;;;4.10;2.72;;;20.70;82.80;;;;;;5068736;28;20033;-83
2022/08/25 01:39:50;;;;;;;4.22;2.65;;;21.80;83.90;;;;;;5057731;28;20029;-84
2022/08/25 01:42:36;;;;;;;5.45;2.70;;;20.70;83.10;;;;;;5061377;28;20017;-83
2022/08/25 01:45:02;;;;;;;6.75;2.97;;;20.70;83.20;;;;;;5048752;28;20046;-84
2022/08/25 01:47:27;;;;;;;4.80;3.00;;;;;;;;;;5062881;28;20021;-82
2022/08/25 01:49:53;;;;;;;7.25;3.15;;;20.70;83.30;;;;;;5062186;28;20032;-84
2022/08/25 01:52:27;;;;;;;8.25;3.17;;;20.60;83.60;;;;;;5057999;28;20025;-83
2022/08/25 01:54:53;;;;;;;6.63;3.08;;;20.60;84.30;;;;;;5063276;28;20029;-85
2022/08/25 01:57:19;;;;;;;6.07;2.90;;;20.50;84.40;;;;;;5055236;28;20025;-84
2022/08/25 01:59:45;;;;;;;7.57;2.95;;;21.70;85.30;;;;;;5057339;28;20029;-84
2022/08/25 02:02:11;;;;;;;8.20;3.15;;;;;;;;;;5053024;28;20061;-85
2022/08/25 02:04:38;;;;;;;3.92;2.97;;;;;;;;;;5066481;28;20013;-83
2022/08/25 02:07:06;;;;;;;3.67;2.65;;;20.50;84.70;;;;;;5061791;28;20036;-84
2022/08/25 02:09:32;;;;;;;8.23;3.10;;;;;;;;;;5064692;28;20032;-83
2022/08/25 02:11:58;;;;;;;6.00;3.25;;;;;;;;;;5076846;28;20093;-84
2022/08/25 02:14:24;;;;;;;7.22;3.00;;;20.70;85.40;;;;;;5077472;28;20036;-84
2022/08/25 02:16:52;;;;;;;6.60;3.30;;;20.40;85.80;;;;;;5066283;28;20029;-83
2022/08/25 02:19:19;;;;;;;5.47;3.38;;;20.40;86.10;;;;;;5065115;28;20032;-82
2022/08/25 02:21:46;;;;;;;5.40;3.40;;;20.40;85.90;;;;;;5064916;28;20067;-82
2022/08/25 02:24:12;;;;;;;6.25;3.42;;;20.40;86.40;;;;;;5044868;28;20081;-84
2022/08/25 02:26:38;;;;;;;5.53;3.30;;;;;;;;;;5048184;28;20055;-81
2022/08/25 02:29:06;;;;;;;4.72;3.35;;;20.40;86.30;;;;;;5041761;28;20490;-82
2022/08/25 02:31:32;;;;;;;4.85;3.10;;;20.40;87.30;;;;;;5065677;28;20021;-82
2022/08/25 02:33:58;;;;;;;14.05;5.07;;;;;;;;;;5053635;28;20025;-82
2022/08/25 02:36:24;;;;;;;5.10;3.50;;;;;;;;;;5066216;28;20025;-84
2022/08/25 02:38:51;;;;;;;6.90;3.95;;;;;;;;;;5072147;28;20040;-83
2022/08/25 02:41:23;;;;;;;7.07;3.97;;;20.20;89.20;;;;;;5070956;28;20020;-83
2022/08/25 02:43:49;;;;;;;6.22;3.95;;;;;;;;;;5061972;28;20024;-85
2022/08/25 02:46:17;;;;;;;6.30;4.00;;;20.20;89.50;;;;;;5072483;28;20013;-82
2022/08/25 02:48:44;;;;;;;6.45;4.22;;;;;;;;;;5073040;28;20035;-83
2022/08/25 02:51:10;;;;;;;5.05;3.63;;;20.10;90.20;;;;;;5080867;28;20029;-81
2022/08/25 02:53:41;;;;;;;5.65;3.50;;;20.20;90.40;;;;;;5081502;28;20021;-83
2022/08/25 02:56:09;;;;;;;7.22;3.95;;;20.10;90.40;;;;;;5068420;28;20101;-83
2022/08/25 02:58:35;;;;;;;5.90;3.30;;;;;;;;;;5062457;28;20029;-83
2022/08/25 03:01:00;;;;;;;5.82;2.90;;;20.20;89.50;;;;;;5076607;28;20037;-84
2022/08/25 03:03:26;;;;;;;5.63;3.55;;;20.20;89.90;;;;;;5057756;28;20048;-84
2022/08/25 03:05:52;;;;;;;6.95;3.58;;;20.20;89.80;;;;;;5069753;28;20043;-84
2022/08/25 03:08:18;;;;;;;4.72;3.10;;;;;;;;;;5067989;28;20045;-83
2022/08/25 03:10:44;;;;;;;6.55;3.40;;;20.20;89.70;;;;;;5051484;28;20036;-83
2022/08/25 03:13:10;;;;;;;5.88;3.63;;;;;;;;;;5068115;28;20066;-84
2022/08/25 03:15:36;;;;;;;6.25;3.72;;;20.20;90.20;;;;;;5069083;28;20062;-84
2022/08/25 03:18:03;;;;;;;7.25;4.50;;;20.10;90.50;;;;;;5073675;28;20025;-84
2022/08/25 03:20:29;;;;;;;8.65;4.55;;;;;;;;;;5073859;28;20017;-83
2022/08/25 03:22:55;;;;;;;6.55;4.65;;;20.10;91.00;;;;;;5062370;28;20037;-82
2022/08/25 03:28:06;;;;;;;6.55;4.10;;;20.00;91.60;;;;;;5068091;28;20048;-84
2022/08/25 03:30:32;;;;;;;7.45;3.80;;;20.00;91.80;;;;;;5044418;28;20041;-83
2022/08/25 03:32:58;;;;;;;6.53;4.00;;;20.00;91.60;;;;;;5038804;28;20053;-84
2022/08/25 03:35:27;;;;;;;6.20;4.20;;;;;;;;;;5056059;28;20030;-84
2022/08/25 03:37:57;;;;;;;5.55;3.85;;;20.10;91.40;;;;;;5064573;28;20071;-84
2022/08/25 03:40:23;;;;;;;5.63;3.45;;;;;;;;;;5065120;28;20029;-81
2022/08/25 03:42:49;;;;;;;6.30;3.38;;;;;;;;;;5059585;28;20123;-82
2022/08/25 03:45:16;;;;;;;5.07;3.78;;;20.10;90.80;;;;;;5046587;28;20025;-80
2022/08/25 03:47:45;;;;;;;6.78;4.10;;;20.10;91.20;;;;;;5053518;28;20082;-80
2022/08/25 03:50:11;;;;;;;6.45;4.20;;;20.00;91.30;;;;;;5042926;28;20029;-82
2022/08/25 03:52:37;;;;;;;6.82;4.20;;;20.00;91.70;;;;;;5056567;28;20036;-83
2022/08/25 03:55:06;;;;;;;7.07;3.88;;;20.00;92.40;;;;;;5041562;28;20025;-79
2022/08/25 03:57:32;;;;;;;6.35;4.28;;;20.00;92.30;;;;;;5053308;28;20098;-81
2022/08/25 03:59:58;;;;;;;7.25;4.80;;;20.00;92.40;;;;;;5056552;28;20618;-82
2022/08/25 04:02:24;;;;;;;7.43;4.45;;;19.90;92.40;;;;;;5059797;28;20040;-83
2022/08/25 04:04:49;;;;;;;13.60;4.50;;;19.90;92.80;;;;;;5046630;28;20029;-83
2022/08/25 04:07:16;;;;;;;7.40;4.22;;;19.80;93.00;;;;;;5044788;28;20028;-82
2022/08/25 04:09:41;;;;;;;9.77;4.72;;;19.80;93.30;;;;;;5042743;28;20032;-81
2022/08/25 04:12:07;;;;;;;8.90;5.00;;;19.70;93.30;;;;;;5061115;28;20029;-83
2022/08/25 04:14:33;;;;;;;9.30;4.18;;;19.70;93.50;;;;;;5044084;28;20063;-82
2022/08/25 04:16:58;;;;;;;5.35;3.70;;;19.60;93.50;;;;;;5053816;28;20029;-80
2022/08/25 04:19:24;;;;;;;4.95;2.90;;;;;;;;;;5064989;28;20111;-83
2022/08/25 04:21:50;;;;;;;6.10;3.60;;;19.60;92.50;;;;;;5073716;28;20033;-83
2022/08/25 04:24:16;;;;;;;5.18;3.13;;;;;;;;;;5061303;28;20045;-82
2022/08/25 04:26:48;;;;;;;5.68;3.22;;;19.60;92.60;;;;;;5062880;28;20025;-83
2022/08/25 04:29:17;;;;;;;5.28;3.20;;;19.50;92.80;;;;;;5056112;28;20037;-83
2022/08/25 04:31:49;;;;;;;6.00;3.50;;;19.50;92.70;;;;;;5043134;28;20037;-83
2022/08/25 04:34:19;;;;;;;6.47;3.35;;;19.50;92.90;;;;;;5070717;28;20048;-82
2022/08/25 04:36:45;;;;;;;5.70;3.30;;;19.60;92.60;;;;;;5064437;28;20021;-82
2022/08/25 04:39:11;;;;;;;8.45;3.45;;;19.60;93.00;;;;;;5059327;28;20028;-83
2022/08/25 04:41:37;;;;;;;8.70;3.10;;;;;;;;;;5068112;28;20016;-81
2022/08/25 04:44:04;;;;;;;12.57;3.20;;;19.60;92.60;;;;;;5064540;28;20032;-83
2022/08/25 04:46:32;;;;;;;5.65;3.10;;;19.50;92.70;;;;;;5058159;28;20021;-83
2022/08/25 04:48:59;;;;;;;9.85;4.18;;;19.50;92.70;;;;;;5049673;28;20016;-83
2022/08/25 04:51:28;;;;;;;6.90;4.10;;;19.50;93.30;;;;;;5060107;28;20036;-80
2022/08/25 04:53:54;;;;;;;7.13;4.10;;;;;;;;;;5052494;28;20037;-80
2022/08/25 04:56:23;;;;;;;8.70;4.22;;;19.40;93.80;;;;;;5069037;28;20032;-84
2022/08/25 04:58:50;;;;;;;5.00;3.50;;;19.40;94.00;;;;;;5054137;28;20037;-85
2022/08/25 05:01:19;;;;;;;7.32;4.07;;;19.40;93.80;;;;;;5064248;28;20032;-85
2022/08/25 05:03:46;;;;;;;4.47;3.20;;;19.40;93.70;;;;;;5068091;28;20057;-82
2022/08/25 05:06:13;;;;;;;6.25;3.20;;;19.40;93.90;;;;;;5059454;28;20017;-83
2022/08/25 05:08:39;;;;;;;6.05;3.67;;;19.50;93.80;;;;;;5064329;28;20047;-83
2022/08/25 05:11:11;;;;;;;5.85;3.50;;;19.40;93.70;;;;;;5064097;28;20057;-82
2022/08/25 05:13:38;;;;;;;7.10;3.58;;;19.40;94.00;;;;;;5042877;28;20033;-84
2022/08/25 05:16:04;;;;;;;8.90;4.18;;;18.70;93.80;;;;;;5074317;28;20025;-83
2022/08/25 05:18:32;;;;;;;8.38;4.13;;;19.40;94.30;;;;;;5052423;28;20054;-84
2022/08/25 05:21:03;;;;;;;8.77;4.72;;;19.40;94.50;;;;;;5064319;28;20032;-83
2022/08/25 05:23:28;;;;;;;9.75;4.72;;;19.40;94.70;;;;;;5052598;28;20074;-83
2022/08/25 05:25:54;;;;;;;8.43;4.95;;;19.40;94.90;;;;;;5046070;28;20494;-84
2022/08/25 05:28:20;;;;;;;9.75;4.65;;;19.50;95.00;;;;;;5061015;28;20048;-81
2022/08/25 05:30:48;;;;;;;9.38;4.95;;;19.80;95.00;;;;;;5050354;28;20072;-82
2022/08/25 05:33:15;;;;;;;8.70;4.82;;;19.50;94.70;;;;;;5064769;28;20426;-83
2022/08/25 05:35:41;;;;;;;12.13;4.75;;;;;;;;;;5065419;28;20435;-83
2022/08/25 05:38:09;;;;;;;10.02;4.75;;;;;;;;;;5069327;28;20040;-82
2022/08/25 05:40:35;;;;;;;7.47;4.47;;;;;;;;;;5054533;28;20042;-83
2022/08/25 05:43:01;;;;;;;10.90;5.05;;;;;;;;;;5060044;28;20021;-81
2022/08/25 05:45:27;;;;;;;8.95;4.50;;;;;;;;;;5066657;28;20025;-83
2022/08/25 05:47:53;;;;;;;17.75;4.85;;;;;;;;;;5066635;28;20040;-82
2022/08/25 05:50:19;;;;;;;14.70;5.15;;;;;;;;;;5060217;28;20033;-82
2022/08/25 05:52:45;;;;;;;11.45;4.80;;;;;;;;;;5070759;28;20025;-83
2022/08/25 05:55:11;;;;;;;8.27;4.03;;;19.90;94.40;;;;;;5069198;28;20032;-84
2022/08/25 05:57:37;;;;;;;12.35;3.95;;;;;;;;;;5070838;28;20021;-82
2022/08/25 06:00:07;;;;;;;5.70;3.65;;;20.10;94.00;;;;;;5066708;28;20029;-82
2022/08/25 06:02:40;;;;;;;9.80;3.30;;;;;;;;;;5066710;28;20021;-85
2022/08/25 06:05:13;;;;;;;5.63;2.90;;;20.30;93.50;;;;;;5064825;28;20032;-82
2022/08/25 06:07:39;;;;;;;5.22;2.97;;;20.40;93.40;;;;;;5064609;28;20021;-82
2022/08/25 06:10:06;;;;;;;7.90;3.25;;;20.60;93.30;;;;;;5046796;28;20040;-85
2022/08/25 06:12:34;;;;;;;7.38;2.92;;;20.70;92.80;;;;;;5065574;28;20032;-80
2022/08/25 06:15:02;;;;;;;6.70;3.13;;;20.80;92.80;;;;;;5065635;28;20021;-83
2022/08/25 06:17:27;;;;;;;4.28;2.92;;;21.30;92.80;;;;;;5062445;28;20021;-82
2022/08/25 06:19:54;;;;;;;5.07;2.95;;;;;;;;;;5065121;28;20445;-82
2022/08/25 06:22:20;;;;;;;6.80;2.85;;;21.00;92.20;;;;;;5049136;28;20087;-83
2022/08/25 06:24:46;;;;;;;6.55;2.97;;;21.20;92.30;;;;;;5048052;28;20047;-81
2022/08/25 06:27:12;;;;;;;4.47;2.80;;;21.20;92.30;;;;;;5039922;28;20110;-81
2022/08/25 06:29:38;;;;;;;4.05;2.55;;;21.30;92.20;;;;;;5032634;28;20453;-81
2022/08/25 06:32:04;;;;;;;5.45;2.80;;;21.50;92.00;;;;;;5064738;28;20455;-80
2022/08/25 06:34:30;;;;;;;7.03;3.97;;;;;;;;;;5055255;28;20029;-81
2022/08/25 06:36:55;;;;;;;5.40;3.17;;;21.80;91.50;;;;;;5068586;28;20498;-82
2022/08/25 06:39:22;;;;;;;5.30;2.67;;;21.80;91.70;;;;;;5066771;28;20074;-82
2022/08/25 06:41:55;;;;;;;6.68;3.22;;;22.00;91.20;;;;;;5066221;28;20111;-81
2022/08/25 06:44:22;;;;;;;7.65;3.13;;;22.10;91.80;;;;;;5067606;28;20017;-81
2022/08/25 06:46:49;;;;;;;6.53;3.40;;;22.20;91.20;;;;;;5068460;28;20031;-80
2022/08/25 06:49:15;;;;;;;4.22;2.75;;;22.20;91.40;;;;;;5066864;28;20029;-81
2022/08/25 06:51:41;;;;;;;6.28;3.30;;;22.40;91.20;;;;;;5066795;28;20021;-82
2022/08/25 06:54:09;;;;;;;5.68;3.28;;;22.40;91.20;;;;;;5057304;28;20025;-79
2022/08/25 06:56:35;;;;;;;4.90;2.80;;;22.60;91.10;;;;;;5069194;28;20021;-82
2022/08/25 06:59:05;;;;;;;5.22;3.05;;;22.60;91.30;;;;;;5066993;28;20024;-82
2022/08/25 07:01:31;;;;;;;4.57;2.80;;;22.80;91.00;;;;;;5067441;28;20009;-81
2022/08/25 07:03:58;;;;;;;3.47;2.42;;;22.80;91.20;;;;;;5066374;28;20025;-81
2022/08/25 07:06:26;;;;;;;5.28;3.00;;;22.90;91.00;;;;;;5049300;28;20046;-82
2022/08/25 07:08:52;;;;;;;4.45;2.90;;;23.10;91.00;;;;;;5057594;28;20032;-82
2022/08/25 07:11:21;;;;;;;8.05;3.03;;;23.40;90.60;;;;;;5065945;28;20029;-80
2022/08/25 07:13:48;;;;;;;5.97;2.85;;;23.30;90.70;;;;;;5064241;28;20029;-82
2022/08/25 07:16:15;;;;;;;4.60;2.83;;;;;;;;;;5054610;28;20039;-81
2022/08/25 07:18:41;;;;;;;4.30;2.78;;;23.60;90.30;;;;;;5068529;28;20021;-82
2022/08/25 07:21:07;;;;;;;4.10;2.47;;;;;;;;;;5055698;28;20029;-82
2022/08/25 07:23:33;;;;;;;4.40;3.00;;;23.70;90.30;;;;;;5066839;28;20083;-81
2022/08/25 07:26:16;;;;;;;4.70;2.95;;;24.20;90.50;;;;;;5052437;28;20028;-84
2022/08/25 07:28:43;;;;;;;8.55;2.65;;;;;;;;;;5064257;28;20033;-80
2022/08/25 07:31:09;;;;;;;4.85;2.60;;;24.10;90.00;;;;;;5062036;28;20013;-81
2022/08/25 07:33:35;;;;;;;5.90;3.10;;;24.20;89.80;;;;;;5079618;28;20017;-83
2022/08/25 07:36:01;;;;;;;6.55;3.50;;;24.30;90.00;;;;;;5077205;28;20028;-80
2022/08/25 07:38:28;;;;;;;4.47;2.95;;;;;;;;;;5075037;28;20501;-83
2022/08/25 07:41:01;;;;;;;4.70;3.20;;;24.50;89.70;;;;;;5072551;28;20029;-82
2022/08/25 07:43:27;;;;;;;5.47;3.13;;;24.50;90.00;;;;;;5070036;28;20029;-83
2022/08/25 07:45:52;;;;;;;5.88;3.30;;;24.60;89.70;;;;;;5061827;28;20577;-80
2022/08/25 07:48:19;;;;;;;5.78;3.30;;;;;;;;;;5051344;28;20025;-82
2022/08/25 07:50:46;;;;;;;6.15;3.08;;;24.90;88.90;;;;;;5059624;28;20021;-82
2022/08/25 07:53:13;;;;;;;7.13;3.50;;;25.10;88.40;;;;;;5061633;28;20032;-82
2022/08/25 07:55:40;;;;;;;11.80;3.10;;;;;;;;;;5065206;28;20005;-82
2022/08/25 07:58:07;;;;;;;6.00;3.00;;;25.30;87.60;;;;;;5070708;28;20025;-84
2022/08/25 08:00:35;;;;;;;6.95;3.30;;;25.40;87.70;;;;;;5051100;28;20400;-82
2022/08/25 08:03:04;;;;;;;5.40;2.70;;;25.50;87.40;;;;;;5052322;28;20251;-83
2022/08/25 08:05:30;;;;;;;6.25;3.45;;;;;;;;;;5030309;28;20227;-83
2022/08/25 08:07:56;;;;;;;8.98;3.80;;;;;;;;;;5044742;28;20036;-84
2022/08/25 08:10:24;;;;;;;6.90;3.40;;;;;;;;;;5053904;28;20510;-81
2022/08/25 08:12:50;;;;;;;9.77;4.13;;;25.80;86.40;;;;;;5060420;28;20056;-81
2022/08/25 08:15:15;;;;;;;6.88;3.60;;;25.80;86.30;;;;;;5042243;28;20028;-82
2022/08/25 08:17:41;;;;;;;5.07;3.08;;;25.90;86.70;;;;;;5056575;28;20031;-82
2022/08/25 08:20:10;;;;;;;6.75;3.63;;;26.10;86.40;;;;;;5053080;28;20163;-84
2022/08/25 08:22:39;;;;;;;7.43;3.10;;;26.20;85.90;;;;;;5056823;28;20036;-83
2022/08/25 08:25:06;;;;;;;7.40;3.53;;;26.30;86.00;;;;;;5056464;28;20055;-82
2022/08/25 08:27:32;;;;;;;5.82;3.25;;;;;;;;;;5035321;28;20554;-82
2022/08/25 08:29:59;;;;;;;4.60;2.88;;;26.60;84.80;;;;;;5052377;28;20037;-82
2022/08/25 08:32:25;;;;;;;5.80;3.47;;;;;;;;;;5040792;28;20398;-81
2022/08/25 08:34:50;;;;;;;5.88;3.60;;;26.80;84.50;;;;;;5060831;28;20045;-81
2022/08/25 08:37:16;;;;;;;7.28;4.05;;;;;;;;;;5054744;28;20025;-82
2022/08/25 08:39:42;;;;;;;5.70;3.20;;;26.90;84.00;;;;;;5041684;28;20114;-84
2022/08/25 08:42:23;;;;;;;7.22;4.22;;;26.90;84.00;;;;;;5064302;28;20029;-84
2022/08/25 08:45:01;;;;;;;6.32;3.80;;;27.00;84.60;;;;;;5053260;28;20513;-80
2022/08/25 08:47:49;;;;;;;5.55;3.38;;;27.00;84.40;;;;;;5067195;28;20028;-83
2022/08/25 08:50:33;;;;;;;7.47;3.42;;;27.00;84.40;;;;;;5060747;28;20111;-81
2022/08/25 08:53:01;;;;;;;7.45;3.80;;;27.20;83.60;;;;;;5056589;28;20624;-82
2022/08/25 08:55:35;;;;;;;6.13;3.40;;;27.40;83.70;;;;;;5051674;28;20087;-82
2022/08/25 08:58:06;;;;;;;5.95;3.25;;;27.30;83.40;;;;;;5056501;28;20115;-82
2022/08/25 09:00:39;;;;;;;7.38;3.15;;;27.50;82.50;;;;;;5057713;28;20140;-81
2022/08/25 09:03:25;;;;;;;5.53;3.35;;;27.60;82.20;;;;;;5036006;28;20017;-84
2022/08/25 09:05:54;;;;;;;5.68;3.58;;;27.60;82.70;;;;;;5034299;28;20033;-81
2022/08/25 09:08:19;;;;;;;5.43;2.92;;;27.70;81.80;;;;;;5031738;28;20093;-81
2022/08/25 09:11:07;;;;;;;7.18;3.25;;;28.00;80.60;;;;;;5055815;28;20056;-83
2022/08/25 09:13:39;;;;;;;5.93;3.20;;;28.00;80.80;;;;;;5045690;28;20026;-81
2022/08/25 09:19:23;;;;;;;4.03;2.78;;;28.10;80.60;;;;;;5056718;28;20040;-82
2022/08/25 09:21:49;;;;;;;7.13;2.90;;;28.30;78.40;;;;;;5051453;28;20047;-82
2022/08/25 09:24:37;;;;;;;4.25;2.90;;;28.40;79.20;;;;;;5056963;28;20053;-81
2022/08/25 09:27:20;;;;;;;5.03;3.20;;;28.40;78.40;;;;;;5056106;28;20021;-82
2022/08/25 09:30:06;;;;;;;5.70;2.90;;;28.60;78.80;;;;;;5055853;28;20028;-82
2022/08/25 09:32:41;;;;;;;5.70;3.30;;;28.70;77.90;;;;;;5062627;28;20052;-82
2022/08/25 09:35:21;;;;;;;5.80;2.65;;;28.80;78.00;;;;;;5058024;28;20025;-83
2022/08/25 09:37:56;;;;;;;;;;;28.90;78.20;;;;;;5046785;28;20082;-82
2022/08/25 09:40:24;;;;;;;7.43;3.30;;;28.80;78.20;;;;;;5057370;28;19916;-84
2022/08/25 09:42:53;;;;;;;5.88;2.85;;;28.80;78.20;;;;;;5058237;28;20025;-80
2022/08/25 09:45:48;;;;;;;;;;;28.80;77.30;;;;;;5056254;28;20041;-83
2022/08/25 09:48:22;;;;;;;4.65;2.92;;;29.00;77.20;;;;;;5032757;28;19917;-81
2022/08/25 09:50:50;;;;;;;5.72;2.78;;;29.10;75.00;;;;;;5047299;28;20040;-84
2022/08/25 09:53:17;;;;;;;8.30;3.35;;;29.10;74.60;;;;;;5057574;28;20430;-83
2022/08/25 09:55:45;;;;;;;7.10;2.50;;;29.20;75.00;;;;;;5050928;28;20036;-81
2022/08/25 09:58:29;;;;;;;4.32;2.75;;;29.30;74.90;;;;;;5050660;28;20033;-81
2022/08/25 10:01:04;;;;;;;3.67;2.75;;;29.50;72.90;;;;;;5050673;28;20033;-80
2022/08/25 10:03:31;;;;;;;5.25;3.10;;;29.50;73.50;;;;;;5052792;28;20056;-82
2022/08/25 10:06:07;;;;;;;4.72;2.85;;;29.30;73.80;;;;;;5057036;28;20100;-83
2022/08/25 10:08:44;;;;;;;6.00;2.60;;;29.30;74.30;;;;;;5056999;28;20093;-82
2022/08/25 10:11:14;;;;;;;3.75;2.50;;;29.30;74.10;;;;;;5045897;28;20536;-83
2022/08/25 10:13:50;;;;;;;3.80;2.72;;;29.20;73.50;;;;;;5046276;28;20025;-82
2022/08/25 10:16:31;;;;;;;5.40;3.10;;;29.20;74.30;;;;;;5053025;28;20047;-82
2022/08/25 10:19:06;;;;;;;4.10;2.80;;;29.20;74.10;;;;;;5052947;28;20032;-80
2022/08/25 10:21:32;;;;;;;4.45;2.90;;;29.40;72.50;;;;;;5053059;28;20550;-82
2022/08/25 10:24:00;;;;;;;4.55;2.70;;;29.50;72.70;;;;;;5055778;28;20116;-81
2022/08/25 10:26:46;;;;;;;3.40;2.38;;;29.50;72.50;;;;;;5042486;28;20017;-82
2022/08/25 10:29:37;;;;;;;5.03;2.40;;;29.60;72.80;;;;;;5063075;28;20028;-81
2022/08/25 10:32:32;;;;;;;3.70;2.63;;;29.90;72.70;;;;;;5057745;28;20482;-82
2022/08/25 10:35:06;;;;;;;4.13;2.80;;;30.20;72.20;;;;;;5058131;28;20056;-80
2022/08/25 10:38:01;;;;;;;4.68;2.65;;;30.30;72.50;;;;;;5034499;28;20116;-81
2022/08/25 10:40:38;;;;;;;5.25;2.83;;;30.50;69.90;;;;;;5053087;28;20033;-80
2022/08/25 10:43:22;;;;;;;6.63;3.22;;;30.60;69.70;;;;;;5048447;28;20040;-81
2022/08/25 10:46:13;;;;;;;4.28;2.70;;;30.80;69.30;;;;;;5047854;28;20055;-80
2022/08/25 10:48:48;;;;;;;4.32;2.60;;;30.90;69.40;;;;;;5050080;28;20495;-80
2022/08/25 10:51:37;;;;;;;7.07;2.83;;;30.90;67.50;;;;;;5054949;28;20106;-82
2022/08/25 10:54:13;;;;;;;;;;;30.80;68.00;;;;;;5049388;28;20033;-81
2022/08/25 10:57:08;;;;;;;4.55;2.35;;;30.70;66.60;;;;;;5053067;28;19904;-80
2022/08/25 11:00:08;;;;;;;6.18;2.92;;;30.80;66.70;;;;;;5060842;28;20037;-81
2022/08/25 11:02:42;;;;;;;5.47;2.90;;;30.80;66.20;;;;;;5024190;28;20052;-79
2022/08/25 11:05:25;;;;;;;3.20;2.50;;;30.80;67.40;;;;;;5057173;28;20032;-81
2022/08/25 11:07:59;;;;;;;3.63;2.40;;;30.90;66.50;;;;;;5054864;28;20104;-81
2022/08/25 11:10:42;;;;;;;8.38;3.00;;;30.90;64.30;;;;;;5039882;28;20018;-80
2022/08/25 11:13:16;;;;;;;4.38;2.60;;;30.90;64.90;;;;;;5044792;28;20079;-81
2022/08/25 11:15:52;;;;;;;4.53;2.80;;;31.00;64.70;;;;;;5058137;28;20056;-82
2022/08/25 11:18:19;;;;;;;3.95;2.67;;;31.00;64.50;;;;;;5063357;28;20033;-80
2022/08/25 11:21:04;;;;;;;3.88;2.63;;;31.20;64.30;;;;;;5055547;28;20021;-81
2022/08/25 11:23:41;;;;;;;4.43;2.60;;;31.20;64.80;;;;;;5055545;28;20075;-79
2022/08/25 11:26:10;;;;;;;6.65;2.90;;;31.20;64.00;;;;;;5044027;28;20163;-80
2022/08/25 11:29:05;;;;;;;4.22;2.80;;;31.30;63.80;;;;;;5054479;28;20021;-80
2022/08/25 11:31:38;;;;;;;4.70;2.50;;;31.30;64.20;;;;;;5023476;28;20040;-81
2022/08/25 11:34:09;;;;;;;8.27;3.10;;;31.50;64.20;;;;;;5059404;28;20053;-84
2022/08/25 11:36:39;;;;;;;3.53;2.80;;;31.60;63.40;;;;;;5041050;28;20052;-82
2022/08/25 11:39:19;;;;;;;4.15;3.08;;;31.50;63.80;;;;;;5056120;28;20021;-82
2022/08/25 11:41:58;;;;;;;6.20;3.65;;;31.90;63.90;;;;;;5059398;28;20017;-83
2022/08/25 11:44:45;;;;;;;5.32;2.60;;;31.50;62.90;;;;;;5051429;28;20021;-80
2022/08/25 11:47:24;;;;;;;7.05;3.08;;;31.50;63.50;;;;;;5053992;28;20025;-80
2022/08/25 11:49:53;;;;;;;3.90;2.90;;;31.50;63.40;;;;;;5035720;28;20414;-81
2022/08/25 11:52:34;;;;;;;4.30;2.70;;;31.60;62.10;;;;;;5055096;28;20432;-81
2022/08/25 11:55:10;;;;;;;3.47;2.70;;;31.60;62.40;;;;;;5057887;28;20075;-80
2022/08/25 11:57:37;;;;;;;3.75;2.78;;;31.80;62.90;;;;;;5047206;28;20028;-80
2022/08/25 12:00:13;;;;;;;6.07;3.13;;;31.60;62.60;;;;;;5053234;28;20537;-84
2022/08/25 12:02:44;;;;;;;5.35;2.75;;;31.70;62.60;;;;;;5054598;28;20027;-81
2022/08/25 12:05:10;;;;;;;3.35;2.72;;;;;;;;;;5059514;28;20112;-82
2022/08/25 12:10:51;;;;;;;5.60;3.35;;;32.10;61.70;;;;;;5054382;28;20039;-82
2022/08/25 12:13:41;;;;;;;3.55;2.65;;;31.90;60.20;;;;;;5071672;28;20032;-81
2022/08/25 12:16:31;;;;;;;3.55;2.67;;;31.80;61.40;;;;;;5075029;28;20044;-81
2022/08/25 12:19:35;;;;;;;4.13;2.78;;;31.80;61.40;;;;;;5061857;28;20041;-79
2022/08/25 12:22:01;;;;;;;6.93;2.72;;;;;;;;;;5076140;28;20023;-80
2022/08/25 12:24:41;;;;;;;3.53;2.58;;;31.80;60.70;;;;;;5076911;28;20017;-80
2022/08/25 12:27:30;;;;;;;4.13;2.80;;;31.70;60.90;;;;;;5080181;28;20021;-80
2022/08/25 12:30:01;;;;;;;3.47;2.78;;;31.70;61.70;;;;;;5077168;28;20028;-80
2022/08/25 12:32:48;;;;;;;6.07;2.67;;;31.60;61.00;;;;;;5082017;28;20021;-79
2022/08/25 12:35:14;;;;;;;5.50;3.13;;;31.50;61.50;;;;;;5076481;28;20077;-80
2022/08/25 12:38:07;;;;;;;4.32;3.22;;;31.70;61.40;;;;;;5057680;28;20045;-81
2022/08/25 12:40:38;;;;;;;4.93;2.85;;;31.90;61.20;;;;;;5072678;28;20085;-80
2022/08/25 12:43:18;;;;;;;6.25;2.70;;;31.90;60.10;;;;;;5076420;28;20005;-79
2022/08/25 12:45:46;;;;;;;5.07;2.92;;;31.70;60.70;;;;;;5067112;28;20016;-82
2022/08/25 12:48:27;;;;;;;4.57;2.65;;;31.80;60.80;;;;;;5075094;28;20021;-82
2022/08/25 12:51:09;;;;;;;3.75;2.75;;;32.30;59.80;;;;;;5080923;28;20005;-81
2022/08/25 12:53:39;;;;;;;6.10;3.03;;;32.30;60.00;;;;;;5067135;28;20112;-81
2022/08/25 12:56:26;;;;;;;5.65;2.60;;;32.50;59.50;;;;;;5051600;28;20028;-81
2022/08/25 12:59:01;;;;;;;4.40;2.45;;;32.50;59.80;;;;;;5042807;28;20487;-81
2022/08/25 13:01:34;;;;;;;3.60;2.70;;;32.20;58.90;;;;;;5050892;28;20326;-80
2022/08/25 13:04:22;;;;;;;3.63;2.88;;;32.10;58.70;;;;;;5056457;28;20025;-80
2022/08/25 13:07:06;;;;;;;4.90;2.70;;;32.00;58.90;;;;;;5056704;28;20017;-80
2022/08/25 13:09:51;;;;;;;3.47;2.40;;;31.80;58.60;;;;;;5056566;28;20024;-80
2022/08/25 13:12:25;;;;;;;3.75;2.50;;;31.70;59.40;;;;;;5055198;28;20487;-81
2022/08/25 13:14:55;;;;;;;3.50;2.47;;;31.70;59.90;;;;;;5046357;28;20025;-80
2022/08/25 13:17:34;;;;;;;4.43;2.88;;;31.80;60.50;;;;;;5057493;28;20033;-83
2022/08/25 13:20:15;;;;;;;5.50;2.60;;;32.00;60.80;;;;;;5051846;28;20107;-80
2022/08/25 13:22:45;;;;;;;4.50;2.92;;;31.90;59.30;;;;;;5043403;28;20083;-82
2022/08/25 13:25:16;;;;;;;3.60;2.63;;;32.00;60.00;;;;;;5058559;28;20021;-84
2022/08/25 13:27:49;;;;;;;2.95;2.42;;;32.10;59.60;;;;;;5048869;28;20111;-80
2022/08/25 13:30:33;;;;;;;3.53;2.90;;;32.00;59.00;;;;;;5055776;28;20120;-82
2022/08/25 13:33:14;;;;;;;3.67;2.40;;;32.20;59.20;;;;;;5050673;28;20029;-83
2022/08/25 13:35:48;;;;;;;3.25;2.45;;;32.10;58.80;;;;;;5047600;28;20563;-82